Lander, WY (82520)

3:34 PM MST on December 10, 2016 (GMT -0700)
Mt. Arder Estates | | Change Station

Elev 5873 ft 42.84 °N, 108.79 °W | Updated 9 seconds ago

Clear
Clear
43.2 °F
Feels Like 39 °F
N
6.7
Wind Variable Wind from SW
Gusts 7.4 mph

Today
High -- | Low -- °F
--% Chance of Precip.
Yesterday
High -- | Low -- °F
Precip. -- in
Pressure 29.71 in
Visibility 10.0 miles
Clouds Clear
Windchill 39 °F
Dew Point 26 °F
Humidity 50%
Rainfall 0.00 in
Snow Depth Not available.
7:35 AM 4:40 PM
Waxing Gibbous, 87% visible
METAR KLND 102153Z AUTO 00000KT 10SM CLR 07/M03 A2964 RMK AO2 SLP059 T00671033
Pressure 29.71 in
Visibility 10.0 miles
Clouds Clear
Windchill 39 °F
Dew Point 26 °F
Humidity 50%
Rainfall 0.00 in
Snow Depth Not available.
7:35 AM 4:40 PM
Waxing Gibbous, 87% visible
METAR KLND 102153Z AUTO 00000KT 10SM CLR 07/M03 A2964 RMK AO2 SLP059 T00671033

10-Day Weather Forecast

Almanac

Astronomy

Dec. 10, 2016 Rise Set
Actual Time
Civil Twilight
Nautical Twilight
Astronomical Twilight
Moon
Length of Visible Light
Length of Day
Tomorrow will be .
, % of the Moon is Illuminated

Today's Extremes

State Highs State Lows

Community

WunderPhotos

Upload Photos

1,956,672 photos uploaded!

WunderBlog® & News

Nearby

Air Quality

  Air Quality AQ Index Pollutant
Not available.

Snow Depth

Station Depth Elevation

Earthquake Activity

City Distance Mag. Time & Date
Minimum magnitude displayed is 2.5.

Coastal Water Temperatures

Place Temperature

Stations

Nearby Weather Stations

Station Location Temp. Windchill Dew Point Humidity Wind Precip. Elev Updated Type
                   

Watches & Warnings

There are currently no watches in effect.